Latest Weather Observations for Bega

IDN60801

Issued at 8:05 am EDT Saturday 1 November 2014 (issued every 30 minutes, with the page automatically refreshed every 10 minutes)

About weather observations | Map of weather stations | Latest weather observations for NSW | Other Formats
Station Details ID: 069139 Name: BEGA AWS Lat: -36.67 Lon: 149.82 Height: 41.0 m
Data from the previous 72 hours. | See also: Recent months at Bega
Date/Time
EDT
Temp
°C
App
Temp
°C
Dew
Point
Rel
Hum
%
Delta-T
°C
Wind Press
QNH
hPa
Press
MSL
hPa
Rain
since 9 am
mm
Dir
 
Spd
km/h
Gust
km/h
Spd
kts
Gust
kts
01/08:03am 28.0 21.6 10.7 34 9.9 NNW 35 56 19 30 996.5 996.4 -
01/08:00am 27.9 22.0 11.0 35 9.7 NNW 33 50 18 27 996.5 996.4 -
01/07:30am 27.5 22.3 11.5 37 9.2 NNW 30 48 16 26 996.6 996.5 -
01/07:00am 26.4 20.3 11.7 40 8.5 NW 35 63 19 34 996.9 996.8 -
01/06:52am 25.6 21.0 12.4 43 7.6 NNW 28 54 15 29 997.1 997.0 -
01/06:51am 25.6 21.5 12.8 45 7.4 NNW 26 54 14 29 997.0 996.9 -
01/06:43am 20.6 19.4 14.0 66 3.8 SW 13 26 7 14 997.5 997.4 -
01/06:30am 14.9 13.6 13.8 93 0.6 SSW 13 17 7 9 997.7 997.6 -
01/06:00am 14.3 13.9 14.0 98 0.2 S 9 15 5 8 998.0 997.9 -
01/05:30am 13.7 13.0 13.2 97 0.3 S 9 15 5 8 998.1 998.0 -
01/02:00am 15.0 16.6 14.8 99 0.1 CALM 0 0 0 0 1000.7 1000.6 0.0
01/01:30am 15.3 17.0 15.1 99 0.1 CALM 0 0 0 0 1001.3 1001.2 0.0
01/01:00am 14.7 16.1 14.5 99 0.1 CALM 0 0 0 0 1001.8 1001.7 0.0
01/12:30am 14.9 16.4 14.7 99 0.1 CALM 0 0 0 0 1002.4 1002.4 0.0
01/12:00am 15.3 17.0 15.1 99 0.1 SW 0 0 0 0 1002.9 1002.9 0.0
 
Date/Time
EDT
Temp
°C
App
Temp
°C
Dew
Point
Rel
Hum
%
Delta-T
°C
Wind Press
QNH
hPa
Press
MSL
hPa
Rain
since 9 am
mm
Dir
 
Spd
km/h
Gust
km/h
Spd
kts
Gust
kts
31/11:30pm 16.1 18.1 15.9 99 0.1 CALM 0 0 0 0 1003.4 1003.4 0.0
31/11:00pm 16.6 18.7 16.3 98 0.2 CALM 0 0 0 0 1003.7 1003.7 0.0
31/10:30pm 16.8 19.0 16.5 98 0.2 CALM 0 0 0 0 1004.1 1004.1 0.0
31/10:00pm 17.5 19.9 16.9 96 0.4 CALM 0 0 0 0 1004.5 1004.5 0.0
31/09:30pm 17.9 20.3 17.1 95 0.5 CALM 0 0 0 0 1004.6 1004.6 0.0
31/09:00pm 18.1 20.3 16.6 91 0.9 WNW 0 0 0 0 1005.0 1005.0 0.0
31/08:30pm 18.7 21.1 17.0 90 1.0 CALM 0 0 0 0 1005.1 1005.1 0.0
31/08:00pm 19.0 20.5 17.5 91 0.9 SW 6 11 3 6 1005.2 1005.2 0.0
31/07:30pm 19.3 20.6 17.1 87 1.3 ESE 6 11 3 6 1005.1 1005.1 0.0
31/07:00pm 19.9 21.3 17.3 85 1.6 SE 6 7 3 4 1005.0 1005.0 0.0
31/06:30pm 20.8 22.0 17.4 81 2.1 SSE 7 11 4 6 1004.8 1004.8 0.0
31/06:00pm 21.8 23.0 17.4 76 2.7 SE 7 13 4 7 1004.9 1004.9 0.0
31/05:30pm 22.9 24.4 17.6 72 3.3 E 6 13 3 7 1004.9 1004.9 0.0
31/05:00pm 23.1 24.4 17.6 71 3.4 SSE 7 11 4 6 1005.1 1005.1 0.0
31/04:30pm 22.8 23.3 17.5 72 3.3 S 11 19 6 10 1005.3 1005.3 0.0
31/04:00pm 23.8 24.4 17.8 69 3.8 SE 11 20 6 11 1005.5 1005.5 0.0
31/03:30pm 24.3 24.9 18.5 70 3.7 SE 13 20 7 11 1005.9 1005.9 0.0
31/03:00pm 24.0 24.4 18.2 70 3.7 SE 13 19 7 10 1006.1 1006.1 0.0
31/02:30pm 25.1 25.2 18.3 66 4.3 ESE 15 20 8 11 1006.6 1006.6 0.0
31/02:00pm 24.6 24.2 18.1 67 4.1 SE 17 20 9 11 1006.8 1006.8 0.0
31/01:30pm 25.8 26.2 18.2 63 4.8 SE 13 19 7 10 1007.2 1007.2 0.0
31/01:00pm 25.2 26.1 18.4 66 4.3 SSE 11 17 6 9 1007.4 1007.4 0.0
31/12:30pm 25.0 25.3 17.0 61 5.0 SE 11 15 6 8 1008.0 1008.0 0.0
31/12:00pm 24.6 24.8 16.8 62 4.8 ESE 11 19 6 10 1008.7 1008.7 0.0
31/11:30am 23.3 23.4 15.6 62 4.6 NNE 9 15 5 8 1009.5 1009.5 0.0
31/11:00am 22.3 22.0 14.4 61 4.7 NNE 9 13 5 7 1010.3 1010.3 0.0
31/10:30am 21.9 21.4 14.8 64 4.2 ENE 11 17 6 9 1010.9 1010.9 0.0
31/10:00am 20.6 19.9 14.3 67 3.7 NE 11 19 6 10 1011.7 1011.7 0.0
31/09:30am 19.9 19.3 14.5 71 3.1 ENE 11 17 6 9 1012.1 1012.1 0.0
31/09:00am 18.5 17.9 13.4 72 2.9 NNE 9 15 5 8 1012.7 1012.7 0.0
31/08:30am 17.8 18.3 13.9 78 2.2 E 4 7 2 4 1013.0 1013.0 0.0
31/08:00am 15.7 15.6 13.4 86 1.3 E 6 7 3 4 1013.0 1013.0 0.0
31/07:30am 15.1 15.8 13.5 90 0.9 ENE 2 7 1 4 1012.9 1012.9 0.0
31/07:00am 14.3 14.3 13.5 95 0.4 ENE 6 9 3 5 1013.0 1013.0 0.0
31/06:30am 14.2 15.1 12.9 92 0.7 CALM 0 0 0 0 1012.9 1012.9 0.0
31/06:00am 14.2 15.1 12.8 91 0.8 CALM 0 0 0 0 1012.8 1012.8 0.0
31/05:30am 14.1 14.6 12.8 92 0.7 SW 2 7 1 4 1012.7 1012.7 0.0
31/05:00am 14.3 15.2 12.9 91 0.8 CALM 0 0 0 0 1012.6 1012.6 0.0
31/04:30am 14.5 15.3 12.7 89 1.0 CALM 0 0 0 0 1012.7 1012.7 0.0
31/04:00am 14.5 14.2 12.7 89 1.0 SW 6 7 3 4 1012.9 1012.9 0.0
31/03:30am 14.4 15.2 12.6 89 1.0 CALM 0 0 0 0 1013.0 1013.0 0.0
31/03:00am 14.6 15.4 12.5 87 1.1 CALM 0 0 0 0 1013.3 1013.3 0.0
31/02:30am 14.5 15.3 12.4 87 1.1 CALM 0 0 0 0 1013.5 1013.5 0.0
31/02:00am 14.6 15.4 12.5 87 1.1 CALM 0 0 0 0 1013.9 1013.9 0.0
31/01:30am 14.7 15.5 12.4 86 1.3 CALM 0 0 0 0 1014.2 1014.2 0.0
31/01:00am 14.7 15.4 12.2 85 1.4 CALM 0 0 0 0 1014.6 1014.6 0.0
31/12:30am 14.7 15.5 12.6 87 1.2 CALM 0 0 0 0 1015.0 1015.0 0.0
31/12:00am 14.8 15.5 12.3 85 1.4 CALM 0 0 0 0 1015.1 1015.1 0.0
 
Date/Time
EDT
Temp
°C
App
Temp
°C
Dew
Point
Rel
Hum
%
Delta-T
°C
Wind Press
QNH
hPa
Press
MSL
hPa
Rain
since 9 am
mm
Dir
 
Spd
km/h
Gust
km/h
Spd
kts
Gust
kts
30/11:30pm 15.0 15.2 12.0 82 1.6 E 2 6 1 3 1015.0 1015.0 0.0
30/11:00pm 15.1 14.9 11.9 81 1.7 ESE 4 6 2 3 1015.3 1015.3 0.0
30/10:30pm 15.4 15.3 12.2 81 1.7 E 4 7 2 4 1015.5 1015.5 0.0
30/10:00pm 15.4 16.1 12.3 82 1.7 CALM 0 0 0 0 1015.5 1015.5 0.0
30/09:30pm 15.6 16.4 12.5 82 1.7 CALM 0 0 0 0 1015.4 1015.4 0.0
30/09:00pm 15.6 16.1 12.9 84 1.5 SSE 2 7 1 4 1015.4 1015.4 0.0
30/08:30pm 15.7 15.3 13.0 84 1.5 SSE 7 11 4 6 1015.0 1015.0 0.0
30/08:00pm 15.8 14.8 13.3 85 1.4 SE 11 15 6 8 1014.6 1014.6 0.0
30/07:30pm 15.6 14.4 12.9 84 1.5 SE 11 17 6 9 1014.3 1014.3 0.0
30/07:00pm 16.3 14.4 13.0 81 1.8 SE 15 24 8 13 1013.7 1013.7 0.0
30/06:30pm 17.5 15.1 13.8 79 2.1 SE 19 26 10 14 1013.0 1013.0 0.0
30/06:00pm 18.5 16.0 14.2 76 2.5 SE 20 30 11 16 1012.4 1012.4 0.0
30/05:30pm 19.2 16.5 13.6 70 3.2 SE 20 30 11 16 1011.8 1011.8 0.0
30/05:00pm 20.3 18.0 14.2 68 3.5 SE 19 28 10 15 1011.4 1011.4 0.0
30/04:30pm 20.8 18.1 14.7 68 3.6 ESE 22 32 12 17 1011.3 1011.3 0.0
30/04:00pm 21.1 18.4 14.5 66 3.9 SE 22 30 12 16 1011.2 1011.2 0.0
30/03:30pm 21.6 18.9 14.5 64 4.2 ESE 22 32 12 17 1011.1 1011.1 0.0
30/03:00pm 22.4 19.2 14.3 60 4.8 ESE 24 35 13 19 1011.1 1011.1 0.0
30/02:30pm 23.3 20.0 15.1 60 4.9 SE 26 35 14 19 1011.0 1011.0 0.0
30/02:00pm 23.5 20.4 14.5 57 5.3 SE 24 35 13 19 1011.1 1011.1 0.0
30/01:30pm 25.7 23.8 14.2 49 6.8 ENE 17 24 9 13 1011.2 1011.2 0.0
30/01:00pm 25.8 25.6 14.6 50 6.7 NNE 9 15 5 8 1011.4 1011.4 0.0
30/12:30pm 25.1 23.9 11.6 42 7.7 SE 9 15 5 8 1011.9 1011.9 0.0
30/12:00pm 24.6 23.0 10.1 40 8.0 NE 9 15 5 8 1012.4 1012.4 0.0
30/11:30am 23.6 22.1 10.6 44 7.2 NE 9 15 5 8 1012.8 1012.8 0.0
30/11:00am 21.9 22.1 13.0 57 5.1 NE 4 9 2 5 1013.4 1013.4 0.0
30/10:30am 20.8 20.1 13.3 62 4.3 NE 9 13 5 7 1013.4 1013.4 0.0
30/10:00am 18.7 18.5 12.9 69 3.3 NE 6 11 3 6 1013.7 1013.7 0.0
30/09:30am 17.3 17.2 13.2 77 2.3 ENE 6 9 3 5 1013.9 1013.9 0.0
30/09:00am 15.4 15.6 13.1 86 1.3 SSW 4 7 2 4 1014.4 1014.4 0.0
30/08:30am 12.8 12.6 11.9 94 0.5 ESE 4 7 2 4 1014.5 1014.5 0.0
30/08:00am 12.3 12.9 12.0 98 0.2 CALM 0 0 0 0 1014.6 1014.6 0.0
30/07:30am 11.5 11.9 11.3 99 0.1 CALM 0 0 0 0 1014.5 1014.5 0.0
30/07:00am 10.9 11.1 10.6 98 0.2 CALM 0 0 0 0 1014.5 1014.5 0.0
30/06:30am 11.0 11.3 10.8 99 0.1 CALM 0 0 0 0 1014.5 1014.5 0.0
30/06:00am 11.0 11.2 10.7 98 0.2 CALM 0 0 0 0 1014.1 1014.1 0.0
30/05:30am 11.6 12.0 11.1 97 0.3 CALM 0 0 0 0 1014.1 1014.1 0.0
30/05:00am 11.7 12.1 11.1 96 0.3 CALM 0 0 0 0 1014.2 1014.2 0.0
30/04:30am 12.4 12.9 11.5 94 0.5 CALM 0 0 0 0 1014.1 1014.1 0.0
30/04:00am 13.3 13.8 11.7 90 0.9 CALM 0 0 0 0 1014.4 1014.4 0.0
30/03:30am 13.7 13.2 12.1 90 0.9 NE 6 7 3 4 1014.6 1014.6 0.0
30/03:00am 14.3 13.5 11.8 85 1.3 WSW 7 9 4 5 1014.7 1014.7 0.0
30/02:30am 14.5 14.0 12.0 85 1.4 SW 6 11 3 6 1015.0 1015.0 0.0
30/02:00am 14.8 14.4 12.3 85 1.4 W 6 7 3 4 1015.2 1015.2 0.0
30/01:30am 14.8 14.3 12.1 84 1.5 S 6 6 3 3 1015.4 1015.4 0.0
30/01:00am 15.1 14.6 12.1 82 1.6 NNW 6 7 3 4 1015.9 1015.8 0.0
30/12:30am 15.2 14.4 11.6 79 1.9 N 7 7 4 4 1016.1 1016.0 0.0
30/12:00am 15.3 15.1 11.7 79 1.9 NNE 4 9 2 5 1016.2 1016.1 0.0
 
Date/Time
EDT
Temp
°C
App
Temp
°C
Dew
Point
Rel
Hum
%
Delta-T
°C
Wind Press
QNH
hPa
Press
MSL
hPa
Rain
since 9 am
mm
Dir
 
Spd
km/h
Gust
km/h
Spd
kts
Gust
kts
29/11:30pm 15.3 15.2 12.1 81 1.7 NE 4 7 2 4 1016.3 1016.2 0.0
29/11:00pm 15.5 16.1 11.9 79 2.0 CALM 0 4 0 2 1016.5 1016.4 0.0
29/10:30pm 15.7 13.7 11.5 76 2.3 NNE 13 17 7 9 1016.6 1016.5 0.0
29/10:00pm 15.8 13.9 11.8 77 2.2 N 13 17 7 9 1016.6 1016.5 0.0
29/09:30pm 15.9 14.7 11.7 76 2.3 N 9 15 5 8 1016.7 1016.6 0.0
29/09:00pm 15.9 15.2 11.3 74 2.5 N 6 7 3 4 1016.7 1016.6 0.0
29/08:30pm 16.0 14.7 11.4 74 2.5 NE 9 13 5 7 1016.3 1016.2 0.0
29/08:00pm 16.1 14.4 11.3 73 2.6 NE 11 17 6 9 1016.2 1016.1 0.0
29/07:30pm 16.2 13.7 11.2 72 2.7 NE 15 20 8 11 1016.0 1015.9 0.0
29/07:00pm 16.2 13.7 10.9 71 2.8 ENE 15 24 8 13 1015.7 1015.6 0.0
29/06:30pm 16.5 12.9 10.6 68 3.1 ENE 20 30 11 16 1015.4 1015.4 0.0
29/06:00pm 17.0 13.8 10.1 64 3.6 ENE 17 22 9 12 1015.3 1015.3 0.0
29/05:30pm 18.0 14.9 10.4 61 4.1 E 17 26 9 14 1015.1 1015.1 0.0
29/05:00pm 18.5 15.0 10.3 59 4.4 ENE 19 24 10 13 1014.9 1014.9 0.0
29/04:30pm 18.8 15.4 10.4 58 4.5 ENE 19 24 10 13 1014.9 1014.9 0.0
29/04:00pm 19.1 15.5 9.9 55 4.9 E 19 26 10 14 1014.9 1014.9 0.0
29/03:30pm 19.6 16.5 10.3 55 5.0 ENE 17 28 9 15 1014.8 1014.8 0.0
29/03:00pm 19.5 16.3 10.0 54 5.1 ENE 17 24 9 13 1015.1 1015.1 0.0
29/02:30pm 19.9 16.2 9.5 51 5.5 E 19 26 10 14 1015.2 1015.2 0.0
29/02:00pm 20.7 17.3 9.3 48 6.1 E 17 22 9 12 1015.4 1015.4 0.0
29/01:30pm 20.8 17.6 10.0 50 5.8 E 17 28 9 15 1015.7 1015.6 0.0
29/01:00pm 20.7 18.0 10.2 51 5.7 ESE 15 24 8 13 1015.9 1015.8 0.0
29/12:30pm 20.0 16.5 10.1 53 5.3 ESE 19 24 10 13 1016.2 1016.1 0.0
29/12:00pm 20.0 16.2 9.0 49 5.8 E 19 24 10 13 1016.5 1016.4 0.0
29/11:30am 20.5 18.2 10.3 52 5.5 NE 13 19 7 10 1016.8 1016.7 0.0
29/11:00am 19.7 17.5 7.8 46 6.1 ESE 9 15 5 8 1017.1 1017.0 0.0
29/10:30am 18.5 15.9 7.9 50 5.4 S 11 20 6 11 1017.3 1017.2 0.0
29/10:00am 18.4 16.3 8.4 52 5.2 S 9 17 5 9 1017.2 1017.1 0.0
29/09:30am 17.5 14.7 8.4 55 4.7 SW 13 20 7 11 1017.2 1017.1 0.0
29/09:00am 16.4 13.9 8.1 58 4.2 WSW 11 19 6 10 1017.1 1017.0 0.0
29/08:30am 15.5 11.4 8.0 61 3.8 SW 19 26 10 14 1017.2 1017.1 0.0

Other Formats:

Comma delimited format used in spreadsheet applications
http://www.bom.gov.au/fwo/IDN60801/IDN60801.95931.axf

JavaScript Object Notation format (JSON) in row-major order
http://www.bom.gov.au/fwo/IDN60801/IDN60801.95931.json